Time;durP1;ratioP1;P1;durP2;ratioP2;P2;SDS_P1;SDS_P2;PMS_P1;PMS_P2;Temp;Humidity;BMP_temperature;BMP_pressure;BME280_temperature;BME280_humidity;BME280_pressure;Samples;Min_cycle;Max_cycle;Signal;HPM_P1;HPM_P2
2022/11/06 00:00:28;;;;;;;53.80;26.10;;;;;;;;;;5031696;28;20268;-80
2022/11/06 00:02:56;;;;;;;45.50;25.00;;;;;;;;;;5031838;28;20183;-80
2022/11/06 00:08:32;;;;;;;42.83;25.10;;;;;;;;;;4988492;28;20211;-83
2022/11/06 00:10:58;;;;;;;51.40;26.73;;;;;;;;;;4990193;28;20178;-79
2022/11/06 00:13:24;;;;;;;46.87;27.67;;;;;;;;;;4993818;28;20184;-80
2022/11/06 00:15:50;;;;;;;44.40;26.80;;;;;;;;;;4974947;28;20187;-79
2022/11/06 00:18:16;;;;;;;42.10;25.43;;;;;;;;;;4985312;28;20188;-80
2022/11/06 00:20:42;;;;;;;43.57;24.93;;;;;;;;;;4978258;28;20290;-80
2022/11/06 00:23:08;;;;;;;48.60;26.20;;;;;;;;;;4989019;28;20318;-79
2022/11/06 00:25:34;;;;;;;43.80;25.10;;;;;;;;;;4975034;28;20187;-80
2022/11/06 00:28:00;;;;;;;52.33;27.53;;;;;;;;;;4989419;28;20560;-80
2022/11/06 00:30:26;;;;;;;46.77;27.57;;;;;;;;;;4986313;28;20187;-80
2022/11/06 00:32:52;;;;;;;53.13;27.83;;;;;;;;;;4967974;28;20199;-80
2022/11/06 00:35:18;;;;;;;53.97;28.07;;;;;;;;;;4973729;28;20180;-79
2022/11/06 00:37:44;;;;;;;52.63;28.43;;;;;;;;;;4973861;28;20187;-80
2022/11/06 00:40:11;;;;;;;44.57;27.37;;;;;;;;;;4991176;28;20189;-80
2022/11/06 00:42:37;;;;;;;44.83;25.40;;;;;;;;;;4983460;28;20188;-79
2022/11/06 00:45:03;;;;;;;45.40;27.43;;;;;;;;;;4982937;28;20206;-80
2022/11/06 00:47:29;;;;;;;47.07;27.67;;;;;;;;;;4999297;28;20582;-80
2022/11/06 00:49:55;;;;;;;42.13;27.70;;;;;;;;;;4993424;28;20184;-80
2022/11/06 00:52:21;;;;;;;49.10;26.67;;;;;;;;;;4997458;28;20427;-80
2022/11/06 00:54:47;;;;;;;52.03;27.50;;;;;;;;;;4992783;28;20191;-80
2022/11/06 00:57:13;;;;;;;48.43;27.57;;;;;;;;;;4995836;28;20723;-79
2022/11/06 00:59:39;;;;;;;50.47;27.77;;;;;;;;;;4993467;28;20180;-80
2022/11/06 01:02:05;;;;;;;53.70;30.53;;;;;;;;;;4980634;28;20188;-80
2022/11/06 01:04:31;;;;;;;43.50;26.33;;;;;;;;;;4996113;28;20266;-80
2022/11/06 01:06:57;;;;;;;54.17;29.30;;;;;;;;;;5000596;28;20254;-80
2022/11/06 01:09:24;;;;;;;53.00;29.57;;;;;;;;;;4989201;28;20206;-80
2022/11/06 01:11:55;;;;;;;49.10;28.93;;;;;;;;;;5009519;28;20187;-80
2022/11/06 01:14:21;;;;;;;60.97;31.57;;;;;;;;;;4991906;28;20192;-79
2022/11/06 01:16:48;;;;;;;62.47;29.63;;;;;;;;;;5010821;28;20233;-80
2022/11/06 01:19:14;;;;;;;52.00;29.90;;;;;;;;;;4983858;28;20227;-80
2022/11/06 01:21:43;;;;;;;56.23;29.33;;;;;;;;;;4990626;28;20246;-79
2022/11/06 01:24:13;;;;;;;49.43;29.90;;;;;;;;;;4995380;28;20184;-80
2022/11/06 01:26:39;;;;;;;48.27;29.00;;;;;;;;;;4994586;28;20222;-80
2022/11/06 01:29:08;;;;;;;57.03;29.63;;;;;;;;;;4993408;28;20196;-80
2022/11/06 01:31:34;;;;;;;61.83;31.17;;;;;;;;;;4994137;28;20647;-81
2022/11/06 01:34:01;;;;;;;46.60;27.63;;;;;;;;;;4992315;28;20287;-80
2022/11/06 01:36:27;;;;;;;50.33;31.10;;;;;;;;;;5009188;28;20191;-80
2022/11/06 01:38:54;;;;;;;58.27;32.43;;;;;;;;;;5008171;28;20685;-80
2022/11/06 01:41:24;;;;;;;64.07;31.60;;;;;;;;;;4994078;28;20188;-80
2022/11/06 01:43:55;;;;;;;62.77;31.70;;;;;;;;;;4993705;28;20184;-80
2022/11/06 01:46:22;;;;;;;57.77;31.83;;;;;;;;;;4989991;28;20219;-80
2022/11/06 01:48:53;;;;;;;65.00;34.20;;;;;;;;;;4990824;28;20192;-80
2022/11/06 01:51:21;;;;;;;73.73;35.53;;;;;;;;;;4994237;28;20271;-80
2022/11/06 01:53:47;;;;;;;65.33;33.27;;;;;;;;;;5008960;28;20184;-80
2022/11/06 01:56:14;;;;;;;61.63;32.40;;;;;;;;;;4977685;28;20206;-80
2022/11/06 01:58:41;;;;;;;56.83;34.80;;;;;;;;;;4989886;28;20633;-81
2022/11/06 02:01:08;;;;;;;66.13;34.73;;;;;;;;;;5008224;28;20230;-80
2022/11/06 02:03:35;;;;;;;56.50;33.10;;;;;;;;;;5006196;28;20196;-80
2022/11/06 02:06:02;;;;;;;68.87;34.40;;;;;;;;;;4976969;28;20244;-80
2022/11/06 02:08:28;;;;;;;60.20;32.17;;;;;;;;;;4994543;28;20188;-80
2022/11/06 02:10:54;;;;;;;70.53;34.93;;;;;;;;;;4992669;28;20640;-80
2022/11/06 02:13:32;;;;;;;58.57;32.43;;;;;;;;;;4993958;28;20270;-80
2022/11/06 02:16:06;;;;;;;66.37;34.03;;;;;;;;;;4998890;28;20192;-80
2022/11/06 02:18:32;;;;;;;60.00;33.97;;;;;;;;;;4981513;28;20227;-79
2022/11/06 02:21:10;;;;;;;54.47;31.00;;;;;;;;;;4982798;28;20251;-80
2022/11/06 02:23:42;;;;;;;63.90;32.63;;;;;;;;;;4977120;28;20245;-80
2022/11/06 02:26:27;;;;;;;60.83;31.33;;;;;;;;;;4992468;28;20219;-80
2022/11/06 02:28:57;;;;;;;57.90;30.90;;;;;;;;;;4988092;28;20263;-80
2022/11/06 02:31:25;;;;;;;67.20;32.87;;;;;;;;;;4992955;28;20267;-80
2022/11/06 02:33:54;;;;;;;67.37;32.60;;;;;;;;;;5008121;28;20191;-80
2022/11/06 02:36:22;;;;;;;58.60;32.57;;;;;;;;;;4984810;28;20184;-80
2022/11/06 02:38:53;;;;;;;55.50;31.73;;;;;;;;;;4975564;28;20192;-80
2022/11/06 02:41:21;;;;;;;60.53;30.50;;;;;;;;;;4987383;28;20274;-80
2022/11/06 02:43:49;;;;;;;47.97;27.70;;;;;;;;;;4992930;28;20183;-79
2022/11/06 02:46:28;;;;;;;52.33;27.37;;;;;;;;;;4978472;28;20833;-80
2022/11/06 02:48:59;;;;;;;56.50;29.80;;;;;;;;;;5006484;28;20286;-80
2022/11/06 02:51:27;;;;;;;66.13;32.67;;;;;;;;;;5008483;28;20194;-80
2022/11/06 02:53:54;;;;;;;58.73;30.93;;;;;;;;;;4985017;28;20181;-80
2022/11/06 02:56:23;;;;;;;57.33;30.57;;;;;;;;;;4988484;28;20195;-81
2022/11/06 02:58:52;;;;;;;45.07;26.70;;;;;;;;;;5008851;28;20190;-80
2022/11/06 03:01:18;;;;;;;65.07;30.93;;;;;;;;;;4993459;28;20214;-80
2022/11/06 03:03:47;;;;;;;57.77;29.50;;;;;;;;;;5007878;28;20211;-80
2022/11/06 03:06:22;;;;;;;65.90;31.67;;;;;;;;;;4990893;28;20546;-80
2022/11/06 03:09:08;;;;;;;62.17;32.73;;;;;;;;;;5005118;28;20222;-80
2022/11/06 03:11:37;;;;;;;78.83;34.37;;;;;;;;;;4975302;28;20196;-80
2022/11/06 03:14:10;;;;;;;57.33;33.03;;;;;;;;;;4991097;28;20187;-80
2022/11/06 03:16:54;;;;;;;69.10;34.10;;;;;;;;;;4991194;28;20180;-80
2022/11/06 03:19:29;;;;;;;58.30;32.10;;;;;;;;;;4989949;28;20184;-81
2022/11/06 03:21:55;;;;;;;66.67;34.13;;;;;;;;;;5007755;28;20318;-80
2022/11/06 03:24:31;;;;;;;65.87;34.40;;;;;;;;;;5007571;28;20644;-80
2022/11/06 03:26:58;;;;;;;78.67;37.53;;;;;;;;;;5007239;28;20219;-80
2022/11/06 03:29:31;;;;;;;66.60;34.77;;;;;;;;;;4974155;28;20641;-80
2022/11/06 03:32:05;;;;;;;61.57;32.00;;;;;;;;;;4977566;28;20183;-80
2022/11/06 03:34:38;;;;;;;61.20;33.47;;;;;;;;;;4986769;28;20523;-80
2022/11/06 03:37:13;;;;;;;54.20;30.97;;;;;;;;;;4980410;28;20283;-80
2022/11/06 03:39:42;;;;;;;74.77;34.57;;;;;;;;;;4987160;28;20187;-81
2022/11/06 03:42:10;;;;;;;65.97;30.90;;;;;;;;;;4992466;28;20187;-80
2022/11/06 03:44:40;;;;;;;51.47;31.23;;;;;;;;;;5005541;28;20181;-80
2022/11/06 03:47:16;;;;;;;72.90;33.67;;;;;;;;;;5007897;28;20305;-80
2022/11/06 03:49:45;;;;;;;67.57;32.03;;;;;;;;;;4990790;28;20183;-80
2022/11/06 03:52:21;;;;;;;61.03;31.67;;;;;;;;;;4992969;28;20214;-80
2022/11/06 03:55:00;;;;;;;69.60;33.37;;;;;;;;;;4985063;28;20195;-80
2022/11/06 03:57:46;;;;;;;58.67;31.80;;;;;;;;;;5003455;28;20188;-80
2022/11/06 04:00:13;;;;;;;72.53;34.03;;;;;;;;;;4976996;28;20194;-80
2022/11/06 04:02:44;;;;;;;67.17;32.77;;;;;;;;;;4974685;28;20188;-80
2022/11/06 04:05:14;;;;;;;65.83;32.97;;;;;;;;;;4991062;28;20653;-80
2022/11/06 04:13:56;;;;;;;61.37;33.00;;;;;;;;;;4991373;28;20211;-80
2022/11/06 04:16:00;;;;;;;67.33;34.00;;;;;;;;;;4992201;28;20206;-80
2022/11/06 04:18:26;;;;;;;59.90;32.27;;;;;;;;;;4991775;28;20187;-80
2022/11/06 04:21:28;;;;;;;74.47;34.53;;;;;;;;;;4989548;28;20232;-80
2022/11/06 04:26:42;;;;;;;72.20;34.43;;;;;;;;;;4989204;28;20246;-79
2022/11/06 04:29:08;;;;;;;70.07;34.57;;;;;;;;;;4973504;28;20176;-80
2022/11/06 04:31:42;;;;;;;57.63;32.60;;;;;;;;;;4975127;28;20292;-80
2022/11/06 04:34:11;;;;;;;75.47;35.53;;;;;;;;;;4988547;28;20179;-80
2022/11/06 04:36:56;;;;;;;61.37;32.50;;;;;;;;;;4972677;28;20273;-80
2022/11/06 04:39:28;;;;;;;73.03;34.67;;;;;;;;;;4973173;28;20203;-80
2022/11/06 04:42:06;;;;;;;94.10;39.23;;;;;;;;;;4977695;28;20192;-80
2022/11/06 04:44:37;;;;;;;101.53;42.00;;;;;;;;;;4974263;28;20278;-80
2022/11/06 04:47:05;;;;;;;113.57;41.23;;;;;;;;;;4973632;28;20624;-80
2022/11/06 04:49:33;;;;;;;110.17;39.60;;;;;;;;;;4989098;28;20187;-80
2022/11/06 04:52:02;;;;;;;204.27;45.87;;;;;;;;;;4972607;28;20191;-79
2022/11/06 04:54:28;;;;;;;95.40;38.30;;;;;;;;;;4973073;28;20215;-79
2022/11/06 04:56:59;;;;;;;159.77;44.97;;;;;;;;;;4972473;28;20592;-80
2022/11/06 04:59:25;;;;;;;154.93;42.57;;;;;;;;;;4975275;28;20535;-80
2022/11/06 05:01:51;;;;;;;126.07;42.33;;;;;;;;;;4991462;28;20207;-80
2022/11/06 05:04:17;;;;;;;137.70;43.50;;;;;;;;;;5002860;28;20580;-79
2022/11/06 05:06:43;;;;;;;282.73;52.63;;;;;;;;;;4979297;28;20233;-80
2022/11/06 05:09:09;;;;;;;245.10;49.67;;;;;;;;;;4995022;28;20547;-79
2022/11/06 05:11:37;;;;;;;223.93;51.87;;;;;;;;;;4973632;28;20194;-80
2022/11/06 05:14:03;;;;;;;219.77;50.27;;;;;;;;;;4976598;28;20204;-82
2022/11/06 05:16:29;;;;;;;184.67;45.50;;;;;;;;;;4978070;28;20191;-79
2022/11/06 05:18:55;;;;;;;184.23;43.50;;;;;;;;;;5002803;28;20295;-79
2022/11/06 05:24:06;;;;;;;161.87;43.30;;;;;;;;;;4980392;28;20262;-79
2022/11/06 05:26:32;;;;;;;146.47;42.80;;;;;;;;;;5005717;28;20616;-80
2022/11/06 05:28:58;;;;;;;149.60;35.57;;;;;;;;;;4989291;28;20543;-80
2022/11/06 05:31:25;;;;;;;207.07;40.03;;;;;;;;;;5007289;28;20188;-80
2022/11/06 05:33:51;;;;;;;240.60;38.93;;;;;;;;;;5008688;28;20184;-79
2022/11/06 05:36:17;;;;;;;191.90;38.00;;;;;;;;;;4992902;28;20549;-79
2022/11/06 05:38:43;;;;;;;183.77;38.20;;;;;;;;;;5009251;28;20649;-80
2022/11/06 05:41:09;;;;;;;251.87;41.03;;;;;;;;;;4987344;28;20176;-79
2022/11/06 05:43:35;;;;;;;269.70;42.57;;;;;;;;;;4976131;28;20176;-79
2022/11/06 05:46:01;;;;;;;253.80;39.47;;;;;;;;;;4989995;28;20214;-80
2022/11/06 05:48:27;;;;;;;230.70;38.10;;;;;;;;;;4994750;28;20671;-81
2022/11/06 05:50:54;;;;;;;323.40;45.27;;;;;;;;;;5009758;28;20204;-81
2022/11/06 05:53:20;;;;;;;458.17;51.80;;;;;;;;;;5006772;28;20172;-81
2022/11/06 05:55:46;;;;;;;398.70;50.77;;;;;;;;;;4994415;28;20180;-80
2022/11/06 05:58:12;;;;;;;237.07;43.03;;;;;;;;;;5010528;28;20278;-81
2022/11/06 06:00:38;;;;;;;113.17;36.37;;;;;;;;;;4995121;28;20708;-83
2022/11/06 06:03:04;;;;;;;207.53;41.10;;;;;;;;;;4988118;28;20271;-81
2022/11/06 06:05:30;;;;;;;183.07;38.27;;;;;;;;;;4979156;28;20271;-79
2022/11/06 06:07:56;;;;;;;225.30;40.53;;;;;;;;;;4994082;28;20180;-82
2022/11/06 06:10:22;;;;;;;130.53;33.70;;;;;;;;;;5010380;28;20193;-82
2022/11/06 06:12:49;;;;;;;192.30;32.80;;;;;;;;;;4993266;28;20188;-81
2022/11/06 06:15:16;;;;;;;288.47;39.63;;;;;;;;;;4990232;28;20184;-82
2022/11/06 06:17:42;;;;;;;188.57;33.23;;;;;;;;;;5009208;28;20192;-82
2022/11/06 06:20:08;;;;;;;172.23;33.60;;;;;;;;;;5010553;28;20238;-80
2022/11/06 06:22:34;;;;;;;239.90;36.37;;;;;;;;;;4980005;28;20185;-81
2022/11/06 06:25:00;;;;;;;228.20;38.33;;;;;;;;;;5003052;28;20201;-83
2022/11/06 06:27:26;;;;;;;227.57;39.30;;;;;;;;;;4984174;28;20213;-82
2022/11/06 06:29:53;;;;;;;189.97;35.33;;;;;;;;;;4996456;28;20188;-81
2022/11/06 06:32:19;;;;;;;168.17;32.90;;;;;;;;;;4992956;28;20639;-83
2022/11/06 06:34:45;;;;;;;206.10;35.87;;;;;;;;;;4991642;28;20212;-82
2022/11/06 06:37:11;;;;;;;134.60;31.70;;;;;;;;;;4994502;28;20230;-83
2022/11/06 06:39:37;;;;;;;240.00;36.87;;;;;;;;;;4994785;28;20194;-81
2022/11/06 06:42:03;;;;;;;195.87;34.63;;;;;;;;;;4992626;28;20192;-84
2022/11/06 06:44:29;;;;;;;173.30;31.53;;;;;;;;;;5009865;28;20196;-81
2022/11/06 06:46:55;;;;;;;154.67;32.43;;;;;;;;;;4993624;28;20212;-81
2022/11/06 06:49:21;;;;;;;166.50;33.10;;;;;;;;;;4985451;28;20195;-81
2022/11/06 06:51:48;;;;;;;153.73;29.27;;;;;;;;;;4989111;28;20183;-81
2022/11/06 06:54:14;;;;;;;111.60;27.57;;;;;;;;;;4995364;28;20275;-83
2022/11/06 06:56:40;;;;;;;171.90;32.70;;;;;;;;;;5009672;28;20219;-81
2022/11/06 06:59:06;;;;;;;92.53;28.10;;;;;;;;;;4989910;28;20167;-83
2022/11/06 07:01:32;;;;;;;154.87;30.67;;;;;;;;;;4994396;28;20223;-81
2022/11/06 07:03:59;;;;;;;92.27;29.77;;;;;;;;;;4994152;28;20211;-80
2022/11/06 07:06:25;;;;;;;173.87;31.13;;;;;;;;;;5007148;28;20215;-80
2022/11/06 07:08:55;;;;;;;184.07;32.10;;;;;;;;;;5009029;28;20274;-83
2022/11/06 07:11:21;;;;;;;154.53;32.43;;;;;;;;;;4992669;28;20195;-82
2022/11/06 07:13:47;;;;;;;130.33;32.90;;;;;;;;;;4993140;28;20172;-86
2022/11/06 07:16:13;;;;;;;112.03;29.60;;;;;;;;;;4990933;28;20187;-81
2022/11/06 07:18:39;;;;;;;239.40;36.23;;;;;;;;;;5004174;28;20195;-80
2022/11/06 07:21:10;;;;;;;161.00;34.37;;;;;;;;;;4976320;28;20303;-81
2022/11/06 07:23:36;;;;;;;161.73;33.97;;;;;;;;;;4992289;28;20347;-81
2022/11/06 07:26:03;;;;;;;137.57;30.47;;;;;;;;;;4992625;28;20249;-80
2022/11/06 07:28:29;;;;;;;91.10;28.30;;;;;;;;;;4993325;28;20657;-82
2022/11/06 07:30:59;;;;;;;153.50;31.33;;;;;;;;;;4991329;28;20184;-81
2022/11/06 07:33:26;;;;;;;71.50;29.20;;;;;;;;;;4990746;28;20246;-82
2022/11/06 07:35:52;;;;;;;110.77;31.47;;;;;;;;;;4991942;28;20196;-82
2022/11/06 07:38:18;;;;;;;218.83;33.70;;;;;;;;;;4992024;28;20178;-82
2022/11/06 07:40:44;;;;;;;98.50;30.80;;;;;;;;;;4993283;28;20237;-81
2022/11/06 07:43:10;;;;;;;180.87;34.07;;;;;;;;;;4990726;28;20279;-80
2022/11/06 07:45:37;;;;;;;162.60;33.03;;;;;;;;;;5004565;28;20230;-80
2022/11/06 07:48:03;;;;;;;157.00;34.90;;;;;;;;;;4980084;28;20203;-80
2022/11/06 07:50:29;;;;;;;81.30;31.67;;;;;;;;;;4991662;28;20199;-80
2022/11/06 07:52:55;;;;;;;153.30;34.30;;;;;;;;;;4992171;28;20234;-80
2022/11/06 07:55:22;;;;;;;145.07;34.33;;;;;;;;;;4981078;28;20192;-82
2022/11/06 07:57:48;;;;;;;150.73;33.40;;;;;;;;;;4983068;28;20194;-82
2022/11/06 08:00:14;;;;;;;98.07;29.00;;;;;;;;;;4988981;28;20183;-82
2022/11/06 08:02:40;;;;;;;108.20;30.50;;;;;;;;;;5007963;28;20203;-82
2022/11/06 08:05:08;;;;;;;92.87;29.47;;;;;;;;;;4991372;28;20227;-80
2022/11/06 08:07:34;;;;;;;88.10;31.73;;;;;;;;;;4990481;28;20269;-80
2022/11/06 08:10:00;;;;;;;204.70;41.60;;;;;;;;;;5006699;28;20195;-79
2022/11/06 08:12:26;;;;;;;180.43;41.27;;;;;;;;;;5007311;28;20608;-81
2022/11/06 08:14:52;;;;;;;98.27;34.77;;;;;;;;;;4975465;28;20275;-79
2022/11/06 08:17:18;;;;;;;148.70;36.53;;;;;;;;;;4991722;28;20212;-78
2022/11/06 08:19:44;;;;;;;173.13;39.60;;;;;;;;;;4976764;28;20276;-82
2022/11/06 08:22:10;;;;;;;192.40;40.70;;;;;;;;;;4999560;28;20186;-82
2022/11/06 08:24:36;;;;;;;173.90;38.17;;;;;;;;;;4989390;28;20601;-82
2022/11/06 08:27:02;;;;;;;96.37;34.90;;;;;;;;;;4992148;28;20350;-81
2022/11/06 08:29:28;;;;;;;139.97;37.93;;;;;;;;;;4990964;28;20637;-80
2022/11/06 08:31:54;;;;;;;115.33;37.97;;;;;;;;;;4991744;28;20184;-79
2022/11/06 08:34:20;;;;;;;130.23;39.80;;;;;;;;;;4989639;28;20293;-79
2022/11/06 08:36:50;;;;;;;130.70;38.73;;;;;;;;;;4991801;28;20187;-81
2022/11/06 08:39:16;;;;;;;185.27;35.00;;;;;;;;;;5008606;28;20238;-83
2022/11/06 08:41:43;;;;;;;171.37;37.20;;;;;;;;;;4990290;28;20184;-82
2022/11/06 08:44:10;;;;;;;152.13;36.97;;;;;;;;;;4991701;28;20172;-81
2022/11/06 08:46:36;;;;;;;85.57;35.97;;;;;;;;;;5007146;28;20703;-83
2022/11/06 08:49:02;;;;;;;177.50;38.60;;;;;;;;;;4989593;28;20188;-80
2022/11/06 08:51:28;;;;;;;97.93;35.87;;;;;;;;;;4998930;28;20199;-82
2022/11/06 08:53:54;;;;;;;86.20;31.47;;;;;;;;;;4989227;28;20191;-81
2022/11/06 08:56:20;;;;;;;139.33;32.47;;;;;;;;;;4991791;28;20207;-83
2022/11/06 08:58:46;;;;;;;161.37;34.33;;;;;;;;;;4989452;28;20644;-81
2022/11/06 09:01:12;;;;;;;141.10;36.17;;;;;;;;;;4991117;28;20183;-83
2022/11/06 09:03:38;;;;;;;104.60;31.80;;;;;;;;;;5007199;28;20278;-83
2022/11/06 09:06:05;;;;;;;120.77;32.90;;;;;;;;;;5005446;28;20266;-82
2022/11/06 09:08:31;;;;;;;63.40;31.53;;;;;;;;;;5008168;28;20226;-82
2022/11/06 09:10:58;;;;;;;91.47;29.80;;;;;;;;;;4990217;28;20226;-80
2022/11/06 09:13:25;;;;;;;89.80;31.13;;;;;;;;;;5003791;28;20243;-81
2022/11/06 09:15:51;;;;;;;87.60;34.30;;;;;;;;;;4986605;28;20190;-83
2022/11/06 09:18:17;;;;;;;116.20;33.03;;;;;;;;;;5008107;28;20223;-82
2022/11/06 09:20:43;;;;;;;214.03;33.60;;;;;;;;;;4977622;28;20228;-83
2022/11/06 09:23:13;;;;;;;124.67;33.60;;;;;;;;;;4995488;28;20172;-79
2022/11/06 09:25:39;;;;;;;70.53;29.23;;;;;;;;;;5011371;28;20183;-83
2022/11/06 09:28:05;;;;;;;66.83;30.67;;;;;;;;;;4988160;28;20188;-81
2022/11/06 09:30:32;;;;;;;114.90;32.33;;;;;;;;;;5007757;28;20196;-81
2022/11/06 09:32:59;;;;;;;51.27;26.53;;;;;;;;;;4980297;28;20266;-82
2022/11/06 09:35:26;;;;;;;37.87;24.90;;;;;;;;;;4995419;28;20203;-82
2022/11/06 09:37:52;;;;;;;45.73;25.90;;;;;;;;;;4995292;28;20671;-80
2022/11/06 09:40:29;;;;;;;47.40;27.23;;;;;;;;;;4994540;28;20214;-82
2022/11/06 09:42:55;;;;;;;64.73;31.37;;;;;;;;;;5006933;28;20247;-83
2022/11/06 09:45:22;;;;;;;68.83;32.87;;;;;;;;;;5003642;28;20192;-81
2022/11/06 09:48:15;;;;;;;48.53;30.60;;;;;;;;;;4993304;28;20216;-81
2022/11/06 09:50:44;;;;;;;45.27;30.77;;;;;;;;;;4977463;28;20223;-82
2022/11/06 09:53:36;;;;;;;46.40;29.50;;;;;;;;;;5000650;28;20186;-80
2022/11/06 09:56:04;;;;;;;38.67;28.67;;;;;;;;;;4983598;28;20192;-82
2022/11/06 09:58:38;;;;;;;44.93;27.03;;;;;;;;;;4998799;28;20291;-81
2022/11/06 10:01:13;;;;;;;38.40;27.37;;;;;;;;;;4995779;28;20550;-81
2022/11/06 10:03:41;;;;;;;36.60;26.33;;;;;;;;;;4987530;28;20190;-84
2022/11/06 10:06:07;;;;;;;41.63;27.90;;;;;;;;;;5016263;28;20204;-81
2022/11/06 10:08:33;;;;;;;39.47;28.40;;;;;;;;;;5017478;28;20195;-82
2022/11/06 10:11:01;;;;;;;46.40;30.13;;;;;;;;;;5017971;28;20159;-83
2022/11/06 10:13:27;;;;;;;42.50;29.27;;;;;;;;;;5017272;28;20213;-81
2022/11/06 10:16:12;;;;;;;46.17;29.20;;;;;;;;;;5015285;28;20190;-85
2022/11/06 10:18:41;;;;;;;52.03;32.13;;;;;;;;;;5012595;28;20179;-83
2022/11/06 10:21:07;;;;;;;42.47;30.03;;;;;;;;;;4998752;28;20274;-82
2022/11/06 10:23:36;;;;;;;47.40;31.20;;;;;;;;;;5001609;28;20168;-82
2022/11/06 10:26:08;;;;;;;44.07;29.03;;;;;;;;;;4981668;28;20294;-82
2022/11/06 10:28:34;;;;;;;47.03;31.70;;;;;;;;;;4976317;28;20180;-84
2022/11/06 10:31:17;;;;;;;42.93;29.80;;;;;;;;;;4972971;28;20234;-81
2022/11/06 10:33:43;;;;;;;45.50;33.13;;;;;;;;;;4979605;28;20250;-81
2022/11/06 10:36:13;;;;;;;51.90;36.57;;;;;;;;;;4995543;28;20645;-82
2022/11/06 10:38:41;;;;;;;52.03;35.27;;;;;;;;;;4991567;28;20184;-81
2022/11/06 10:41:15;;;;;;;62.57;39.10;;;;;;;;;;4991606;28;20180;-82
2022/11/06 10:43:51;;;;;;;51.47;35.40;;;;;;;;;;4989640;28;20246;-83
2022/11/06 10:46:37;;;;;;;50.60;35.83;;;;;;;;;;5008309;28;20691;-80
2022/11/06 10:49:24;;;;;;;52.23;36.30;;;;;;;;;;4993896;28;20184;-82
2022/11/06 10:51:57;;;;;;;36.07;28.10;;;;;;;;;;4985455;28;20660;-80
2022/11/06 10:54:42;;;;;;;34.13;25.87;;;;;;;;;;4989724;28;20192;-82
2022/11/06 10:57:26;;;;;;;33.07;24.03;;;;;;;;;;4986681;28;20196;-83
2022/11/06 10:59:52;;;;;;;34.30;25.57;;;;;;;;;;4992551;28;20176;-80
2022/11/06 11:02:29;;;;;;;37.33;26.83;;;;;;;;;;4988118;28;20173;-81
2022/11/06 11:04:55;;;;;;;38.77;26.33;;;;;;;;;;5009098;28;20184;-84
2022/11/06 11:07:22;;;;;;;40.03;28.70;;;;;;;;;;4993155;28;20266;-82
2022/11/06 11:09:49;;;;;;;43.40;28.53;;;;;;;;;;4994869;28;20184;-80
2022/11/06 11:12:28;;;;;;;38.83;27.13;;;;;;;;;;5008151;28;20230;-83
2022/11/06 11:15:15;;;;;;;35.40;25.27;;;;;;;;;;4992122;28;20176;-84
2022/11/06 11:17:42;;;;;;;38.30;26.57;;;;;;;;;;4990906;28;20266;-81
2022/11/06 11:20:27;;;;;;;31.93;25.40;;;;;;;;;;4991410;28;20288;-81
2022/11/06 11:23:06;;;;;;;34.73;25.47;;;;;;;;;;4976124;28;20187;-81
2022/11/06 11:25:32;;;;;;;33.83;24.37;;;;;;;;;;4987002;28;20180;-81
2022/11/06 11:27:59;;;;;;;35.83;27.10;;;;;;;;;;4992995;28;20239;-81
2022/11/06 11:30:28;;;;;;;46.40;35.20;;;;;;;;;;4993380;28;20207;-81
2022/11/06 11:32:55;;;;;;;34.13;25.23;;;;;;;;;;4997981;28;20178;-81
2022/11/06 11:35:23;;;;;;;31.57;24.97;;;;;;;;;;4988981;28;20183;-81
2022/11/06 11:37:49;;;;;;;33.70;24.43;;;;;;;;;;4993926;28;20284;-81
2022/11/06 11:40:35;;;;;;;27.77;21.03;;;;;;;;;;5008083;28;20645;-81
2022/11/06 11:43:20;;;;;;;30.80;21.47;;;;;;;;;;5004964;28;20184;-81
2022/11/06 11:46:02;;;;;;;30.97;21.27;;;;;;;;;;5003719;28;20184;-80
2022/11/06 11:48:40;;;;;;;27.60;22.53;;;;;;;;;;5005997;28;20606;-81
2022/11/06 11:51:25;;;;;;;27.03;21.33;;;;;;;;;;4999755;28;20194;-80
2022/11/06 11:53:52;;;;;;;25.87;19.63;;;;;;;;;;4990341;28;20267;-80
2022/11/06 11:56:21;;;;;;;26.13;20.13;;;;;;;;;;4984616;28;20176;-80
2022/11/06 11:58:54;;;;;;;27.10;19.10;;;;;;;;;;4986638;28;20203;-81
2022/11/06 12:01:30;;;;;;;26.33;20.20;;;;;;;;;;4984796;28;20189;-80
2022/11/06 12:03:56;;;;;;;26.87;19.83;;;;;;;;;;4990260;28;20187;-80
2022/11/06 12:06:22;;;;;;;30.20;21.37;;;;;;;;;;4994193;28;20274;-81
2022/11/06 12:08:50;;;;;;;26.57;20.37;;;;;;;;;;4990197;28;20176;-81
2022/11/06 12:11:21;;;;;;;30.50;20.47;;;;;;;;;;4986423;28;20262;-81
2022/11/06 12:14:17;;;;;;;28.90;21.07;;;;;;;;;;4988420;28;20734;-80
2022/11/06 12:16:44;;;;;;;29.90;19.87;;;;;;;;;;4982323;28;20246;-81
2022/11/06 12:19:11;;;;;;;29.10;19.97;;;;;;;;;;4985550;28;20547;-81
2022/11/06 12:21:38;;;;;;;28.33;19.37;;;;;;;;;;4991275;28;20234;-81
2022/11/06 12:24:10;;;;;;;26.40;19.63;;;;;;;;;;4990658;28;20545;-81
2022/11/06 12:26:49;;;;;;;29.83;20.97;;;;;;;;;;4990882;28;20207;-81
2022/11/06 12:29:16;;;;;;;22.97;17.73;;;;;;;;;;4987218;28;20183;-81
2022/11/06 12:31:53;;;;;;;23.43;19.33;;;;;;;;;;4989876;28;20264;-81
2022/11/06 12:34:22;;;;;;;25.90;19.03;;;;;;;;;;4985391;28;20203;-81
2022/11/06 12:37:09;;;;;;;25.40;18.30;;;;;;;;;;4999020;28;20190;-81
2022/11/06 12:39:37;;;;;;;25.80;18.27;;;;;;;;;;4956455;28;20188;-80
2022/11/06 12:42:04;;;;;;;26.43;17.73;;;;;;;;;;4950591;28;20192;-81
2022/11/06 12:44:30;;;;;;;23.53;17.60;;;;;;;;;;4954343;28;20184;-81
2022/11/06 12:47:01;;;;;;;23.37;17.97;;;;;;;;;;4955689;28;20207;-81
2022/11/06 12:49:35;;;;;;;24.70;19.33;;;;;;;;;;4956987;28;20192;-81
2022/11/06 12:52:04;;;;;;;33.57;19.07;;;;;;;;;;4950754;29;20588;-82
2022/11/06 12:54:56;;;;;;;23.80;17.63;;;;;;;;;;4961170;28;20192;-82
2022/11/06 12:57:40;;;;;;;23.47;17.90;;;;;;;;;;4955753;28;20204;-82
2022/11/06 13:00:11;;;;;;;23.80;17.23;;;;;;;;;;4972196;28;20231;-82
2022/11/06 13:02:55;;;;;;;23.13;17.07;;;;;;;;;;4974101;28;20176;-82
2022/11/06 13:05:38;;;;;;;23.63;17.00;;;;;;;;;;4957284;28;20439;-83
2022/11/06 13:08:12;;;;;;;26.93;18.30;;;;;;;;;;4955659;28;20303;-82
2022/11/06 13:10:41;;;;;;;23.90;18.67;;;;;;;;;;4955653;28;20244;-83
2022/11/06 13:13:17;;;;;;;27.93;18.67;;;;;;;;;;4953537;29;20185;-83
2022/11/06 13:15:55;;;;;;;26.50;19.43;;;;;;;;;;4956260;28;20195;-83
2022/11/06 13:18:29;;;;;;;28.13;18.90;;;;;;;;;;4980118;28;20195;-84
2022/11/06 13:20:59;;;;;;;25.93;18.57;;;;;;;;;;4976250;28;20228;-83
2022/11/06 13:23:27;;;;;;;27.33;18.73;;;;;;;;;;4995594;28;20183;-84
2022/11/06 13:26:01;;;;;;;20.83;15.70;;;;;;;;;;4982669;28;20188;-84
2022/11/06 13:28:48;;;;;;;24.20;15.20;;;;;;;;;;5005749;28;20679;-83
2022/11/06 13:31:16;;;;;;;23.60;16.70;;;;;;;;;;4991239;28;20175;-83
2022/11/06 13:33:46;;;;;;;25.37;18.10;;;;;;;;;;4995930;28;20255;-83
2022/11/06 13:36:12;;;;;;;22.77;17.53;;;;;;;;;;4980047;28;20195;-83
2022/11/06 13:38:47;;;;;;;27.73;18.13;;;;;;;;;;4995707;28;20188;-83
2022/11/06 13:41:15;;;;;;;25.63;18.27;;;;;;;;;;5010636;28;20187;-83
2022/11/06 13:43:43;;;;;;;23.93;16.57;;;;;;;;;;5009909;28;20190;-82
2022/11/06 13:46:28;;;;;;;23.93;17.87;;;;;;;;;;4990459;28;20214;-82
2022/11/06 13:48:54;;;;;;;25.13;17.10;;;;;;;;;;4992091;28;20614;-82
2022/11/06 13:51:36;;;;;;;24.07;18.13;;;;;;;;;;4993919;28;20267;-82
2022/11/06 13:54:02;;;;;;;27.60;20.93;;;;;;;;;;4994158;28;20634;-82
2022/11/06 13:56:28;;;;;;;31.20;20.07;;;;;;;;;;4992049;28;20186;-82
2022/11/06 13:59:09;;;;;;;32.23;21.77;;;;;;;;;;5002383;28;20188;-82
2022/11/06 14:01:44;;;;;;;26.33;21.13;;;;;;;;;;4986919;28;20671;-83
2022/11/06 14:04:23;;;;;;;31.53;23.13;;;;;;;;;;5008213;28;20192;-82
2022/11/06 14:06:52;;;;;;;28.53;20.73;;;;;;;;;;5008897;28;20219;-82
2022/11/06 14:09:20;;;;;;;32.37;21.97;;;;;;;;;;4993780;28;20211;-82
2022/11/06 14:11:51;;;;;;;28.10;20.70;;;;;;;;;;4993711;28;20246;-82
2022/11/06 14:14:27;;;;;;;27.87;21.00;;;;;;;;;;4983609;28;20188;-82
2022/11/06 14:17:12;;;;;;;30.23;21.67;;;;;;;;;;5002569;28;20198;-82
2022/11/06 14:19:39;;;;;;;30.60;20.53;;;;;;;;;;4983025;28;20179;-80
2022/11/06 14:22:08;;;;;;;29.93;19.83;;;;;;;;;;4986151;28;20192;-82
2022/11/06 14:24:35;;;;;;;25.73;19.27;;;;;;;;;;5007129;28;20188;-81
2022/11/06 14:27:02;;;;;;;27.20;18.63;;;;;;;;;;4997771;28;20196;-85
2022/11/06 14:29:28;;;;;;;24.70;18.00;;;;;;;;;;4993395;28;20191;-84
2022/11/06 14:32:01;;;;;;;25.50;18.27;;;;;;;;;;4993525;28;20192;-82
2022/11/06 14:34:28;;;;;;;25.77;18.83;;;;;;;;;;5004594;28;20648;-83
2022/11/06 14:36:55;;;;;;;35.10;20.23;;;;;;;;;;4990214;28;20227;-82
2022/11/06 14:39:39;;;;;;;26.47;18.97;;;;;;;;;;4991378;28;20666;-81
2022/11/06 14:42:07;;;;;;;32.40;19.47;;;;;;;;;;4981789;28;20270;-81